createdAt,value
2019-03-04T00:01:09.228Z,53.45
2019-03-04T00:04:14.037Z,52.79
2019-03-04T00:07:18.489Z,51.67
2019-03-04T00:10:22.927Z,50.54
2019-03-04T00:13:27.758Z,50.55
2019-03-04T00:16:32.186Z,50.85
2019-03-04T00:19:36.623Z,50.86
2019-03-04T00:22:41.058Z,50.28
2019-03-04T00:25:45.761Z,50.77
2019-03-04T00:28:50.486Z,51.93
2019-03-04T00:31:55.227Z,50.91
2019-03-04T00:34:59.664Z,50.79
2019-03-04T00:38:04.105Z,50.84
2019-03-04T00:41:08.542Z,51.47
2019-03-04T00:44:13.047Z,50.19
2019-03-04T00:47:17.481Z,50.75
2019-03-04T00:50:22.687Z,50.51
2019-03-04T00:53:27.132Z,51.66
2019-03-04T00:56:31.842Z,50.14
2019-03-04T00:59:36.279Z,50.65
2019-03-04T01:02:40.717Z,50.57
2019-03-04T01:05:45.180Z,51.87
2019-03-04T01:08:49.611Z,52.36
2019-03-04T01:11:54.375Z,52.76
2019-03-04T01:14:59.096Z,53.65
2019-03-04T01:18:03.830Z,54.90
2019-03-04T01:21:08.278Z,55.50
2019-03-04T01:24:12.984Z,55.07
2019-03-04T01:27:17.715Z,56.18
2019-03-04T01:30:24.074Z,55.62
2019-03-04T01:33:28.821Z,55.85
2019-03-04T01:36:33.250Z,50.04
2019-03-04T01:39:37.977Z,49.07
2019-03-04T01:42:42.404Z,49.56
2019-03-04T01:45:46.847Z,50.29
2019-03-04T01:48:51.297Z,46.53
2019-03-04T01:51:55.745Z,45.65
2019-03-04T01:55:00.499Z,46.85
2019-03-04T01:58:04.926Z,47.02
2019-03-04T02:01:09.363Z,46.27
2019-03-04T02:04:13.857Z,45.13
2019-03-04T02:07:18.240Z,46.06
2019-03-04T02:10:23.033Z,45.87
2019-03-04T02:13:27.465Z,44.34
2019-03-04T02:16:32.184Z,44.97
2019-03-04T02:19:36.632Z,45.29
2019-03-04T02:22:41.070Z,46.01
2019-03-04T02:25:50.216Z,44.99
2019-03-04T02:28:54.993Z,43.68
2019-03-04T02:31:59.724Z,43.82
2019-03-04T02:35:05.200Z,43.38
2019-03-04T02:38:09.903Z,43.65
2019-03-04T02:41:14.735Z,46.15
2019-03-04T02:44:19.567Z,46.58
2019-03-04T02:47:24.306Z,45.69
2019-03-04T02:50:28.747Z,48.97
2019-03-04T02:53:33.262Z,50.34
2019-03-04T02:56:37.709Z,51.24
2019-03-04T02:59:42.144Z,51.11
2019-03-04T03:02:46.668Z,51.49
2019-03-04T03:05:51.112Z,52.57
2019-03-04T03:08:55.878Z,52.66
2019-03-04T03:12:00.331Z,52.88
2019-03-04T03:15:11.368Z,53.26
2019-03-04T03:18:15.806Z,51.89
2019-03-04T03:21:20.260Z,52.83
2019-03-04T03:24:24.725Z,54.40
2019-03-04T03:27:29.145Z,52.44
2019-03-04T03:30:33.601Z,55.02
2019-03-04T03:33:38.030Z,54.29
2019-03-04T03:36:42.464Z,54.57
2019-03-04T03:39:46.892Z,54.69
2019-03-04T03:42:51.394Z,54.69
2019-03-04T03:45:55.835Z,53.36
2019-03-04T03:49:00.255Z,54.42
2019-03-04T03:52:04.689Z,53.97
2019-03-04T03:55:14.557Z,55.83
2019-03-04T03:58:19.252Z,56.45
2019-03-04T04:01:23.681Z,56.03
2019-03-04T04:04:28.122Z,55.75
2019-03-04T04:07:32.553Z,55.90
2019-03-04T04:10:37.258Z,56.57
2019-03-04T04:13:41.694Z,56.90
2019-03-04T04:16:46.125Z,55.72
2019-03-04T04:19:52.952Z,56.56
2019-03-04T04:22:56.986Z,57.03
2019-03-04T04:26:01.749Z,57.98
2019-03-04T04:29:07.793Z,58.65
2019-03-04T04:32:12.512Z,58.07
2019-03-04T04:35:16.937Z,58.85
2019-03-04T04:38:21.667Z,57.44
2019-03-04T04:41:26.090Z,56.73
2019-03-04T04:44:30.524Z,57.50
2019-03-04T04:47:35.026Z,58.45
2019-03-04T04:50:39.455Z,57.54
2019-03-04T04:53:43.899Z,54.37
2019-03-04T04:56:48.318Z,55.16
2019-03-04T04:59:52.754Z,50.47
2019-03-04T05:02:57.194Z,53.78
2019-03-04T05:06:01.891Z,54.41
2019-03-04T05:09:07.195Z,53.69
2019-03-04T05:12:11.968Z,54.88
2019-03-04T05:15:18.035Z,53.72
2019-03-04T05:18:22.761Z,56.20
2019-03-04T05:21:27.490Z,55.19
2019-03-04T05:24:31.927Z,54.29
2019-03-04T05:27:36.369Z,55.35
2019-03-04T05:30:40.801Z,54.47
2019-03-04T05:33:45.236Z,53.92
2019-03-04T05:36:49.663Z,54.07
2019-03-04T05:39:54.438Z,54.30
2019-03-04T05:42:58.874Z,53.41
2019-03-04T05:46:03.300Z,51.76
2019-03-04T05:49:07.739Z,49.67
2019-03-04T05:52:12.443Z,49.95
2019-03-04T05:55:17.006Z,51.60
2019-03-04T05:58:21.441Z,48.22
2019-03-04T06:01:29.603Z,46.71
2019-03-04T06:04:34.052Z,48.16
2019-03-04T06:07:40.130Z,50.39
2019-03-04T06:10:44.834Z,50.99
2019-03-04T06:13:49.251Z,52.78
2019-03-04T06:16:53.678Z,53.46
2019-03-04T06:19:58.110Z,54.57
2019-03-04T06:23:02.560Z,54.45
2019-03-04T06:26:07.246Z,53.23
2019-03-04T06:29:12.975Z,48.03
2019-03-04T06:32:17.804Z,49.15
2019-03-04T06:35:25.951Z,47.46
2019-03-04T06:38:30.421Z,45.44
2019-03-04T06:41:35.212Z,44.85
2019-03-04T06:44:39.654Z,43.68
2019-03-04T06:47:44.514Z,43.40
2019-03-04T06:50:53.338Z,42.52
2019-03-04T06:54:11.236Z,45.15
2019-03-04T06:57:16.720Z,44.86
2019-03-04T07:00:28.567Z,43.39
2019-03-04T07:03:33.362Z,43.00
2019-03-04T07:06:38.044Z,43.62
2019-03-04T07:09:42.490Z,42.62
2019-03-04T07:12:47.190Z,42.46
2019-03-04T07:15:51.649Z,42.28
2019-03-04T07:18:56.341Z,42.81
2019-03-04T07:22:00.769Z,41.97
2019-03-04T07:25:08.172Z,41.75
2019-03-04T07:28:12.611Z,42.51
2019-03-04T07:31:17.131Z,42.68
2019-03-04T07:34:21.569Z,43.23
2019-03-04T07:37:26.006Z,44.07
2019-03-04T07:40:30.448Z,43.71
2019-03-04T07:43:35.218Z,43.12
2019-03-04T07:46:39.942Z,43.13
2019-03-04T07:49:48.732Z,42.72
2019-03-04T07:52:58.312Z,42.85
2019-03-04T07:56:03.055Z,42.61
2019-03-04T07:59:07.483Z,43.04
2019-03-04T08:02:11.926Z,42.90
2019-03-04T08:05:16.372Z,43.47
2019-03-04T08:08:21.156Z,43.72
2019-03-04T08:11:49.951Z,44.50
2019-03-04T08:14:54.394Z,45.09
2019-03-04T08:17:58.907Z,47.19
2019-03-04T08:21:03.625Z,50.00
2019-03-04T08:24:08.059Z,55.38
2019-03-04T08:27:12.663Z,57.77
2019-03-04T08:30:19.311Z,60.05
2019-03-04T08:33:24.081Z,63.29
2019-03-04T08:36:28.821Z,60.36
2019-03-04T08:39:33.250Z,61.21
2019-03-04T08:42:37.697Z,63.38
2019-03-04T08:45:42.145Z,65.21
2019-03-04T08:48:46.576Z,67.10
2019-03-04T08:51:51.334Z,66.72
2019-03-04T08:54:55.775Z,65.09
2019-03-04T08:58:00.211Z,63.37
2019-03-04T09:01:04.724Z,62.57
2019-03-04T09:04:09.547Z,61.68
2019-03-04T09:07:13.991Z,60.34
2019-03-04T09:10:27.997Z,58.74
2019-03-04T09:13:32.752Z,59.71
2019-03-04T09:16:37.193Z,57.91
2019-03-04T09:19:41.627Z,56.24
2019-03-04T09:22:46.072Z,55.11
2019-03-04T09:26:09.001Z,55.61
2019-03-04T09:29:13.685Z,55.06
2019-03-04T09:32:18.123Z,55.90
2019-03-04T09:35:22.974Z,54.83
2019-03-04T09:38:27.702Z,54.75
2019-03-04T09:41:32.158Z,55.05
2019-03-04T09:44:36.849Z,53.91
2019-03-04T09:47:41.359Z,54.15
2019-03-04T09:50:45.787Z,52.79
2019-03-04T09:53:50.232Z,52.67
2019-03-04T09:56:54.676Z,52.94
2019-03-04T09:59:59.110Z,52.58
2019-03-04T10:03:43.132Z,52.19
2019-03-04T10:07:28.710Z,51.78
2019-03-04T10:10:45.844Z,52.02
2019-03-04T10:14:07.009Z,51.92
2019-03-04T10:17:53.550Z,52.67
2019-03-04T10:21:26.158Z,53.18
2019-03-04T10:24:43.540Z,52.89
2019-03-04T10:28:26.992Z,53.02
2019-03-04T10:32:06.365Z,53.92
2019-03-04T10:35:34.365Z,53.08
2019-03-04T10:39:04.744Z,53.05
2019-03-04T10:42:51.667Z,53.55
2019-03-04T10:46:27.727Z,53.27
2019-03-04T10:49:32.582Z,52.92
2019-03-04T10:52:37.028Z,52.65
2019-03-04T10:55:42.510Z,52.57
2019-03-04T10:58:46.989Z,52.53
2019-03-04T11:01:51.425Z,52.87
2019-03-04T11:04:56.136Z,52.65
2019-03-04T11:08:00.862Z,53.01
2019-03-04T11:11:05.700Z,53.25
2019-03-04T11:14:10.525Z,53.00
2019-03-04T11:17:15.261Z,52.58
2019-03-04T11:20:19.706Z,53.06
2019-03-04T11:23:25.134Z,52.69
2019-03-04T11:26:29.564Z,52.62
2019-03-04T11:29:34.284Z,53.17
2019-03-04T11:32:39.013Z,53.23
2019-03-04T11:35:43.455Z,53.27
2019-03-04T11:38:55.022Z,52.58
2019-03-04T11:41:59.458Z,52.11
2019-03-04T11:45:05.507Z,51.77
2019-03-04T11:48:09.938Z,51.47
2019-03-04T11:51:14.388Z,50.33
2019-03-04T11:54:18.827Z,50.70
2019-03-04T11:57:23.614Z,49.85
2019-03-04T12:00:39.665Z,50.11
2019-03-04T12:03:44.339Z,49.32
2019-03-04T12:06:48.779Z,49.40
2019-03-04T12:09:53.498Z,48.97
2019-03-04T12:12:57.932Z,49.38
2019-03-04T12:16:02.387Z,49.77
2019-03-04T12:19:07.502Z,50.23
2019-03-04T12:22:11.941Z,50.86
2019-03-04T12:25:21.310Z,51.50
2019-03-04T12:28:25.748Z,51.72
2019-03-04T12:31:31.825Z,52.36
2019-03-04T12:34:36.265Z,52.75
2019-03-04T12:37:41.044Z,53.03
2019-03-04T12:40:45.818Z,51.96
2019-03-04T12:43:50.263Z,51.91
2019-03-04T12:46:54.979Z,51.29
2019-03-04T12:49:59.428Z,51.02
2019-03-04T12:53:04.744Z,50.22
2019-03-04T12:56:09.188Z,50.05
2019-03-04T12:59:13.621Z,49.95
2019-03-04T13:02:18.077Z,48.66
2019-03-04T13:05:22.598Z,46.82
2019-03-04T13:08:27.270Z,46.36
2019-03-04T13:11:31.715Z,45.65
2019-03-04T13:14:36.172Z,44.04
2019-03-04T13:17:40.674Z,43.46
2019-03-04T13:20:45.287Z,42.91
2019-03-04T13:23:49.729Z,42.95
2019-03-04T13:26:54.428Z,41.86
2019-03-04T13:29:58.865Z,40.80
2019-03-04T13:33:03.580Z,40.82
2019-03-04T13:36:08.936Z,40.41
2019-03-04T13:39:13.655Z,38.49
2019-03-04T13:42:18.101Z,37.32
2019-03-04T13:45:23.123Z,34.19
2019-03-04T13:48:27.563Z,31.76
2019-03-04T13:51:32.012Z,30.72
2019-03-04T13:54:36.696Z,28.99
2019-03-04T13:57:42.248Z,29.00
2019-03-04T14:00:46.978Z,30.90
2019-03-04T14:03:51.720Z,31.44
2019-03-04T14:06:56.148Z,30.36
2019-03-04T14:10:00.580Z,28.33
2019-03-04T14:13:05.093Z,28.13
2019-03-04T14:16:09.820Z,27.84
2019-03-04T14:19:14.241Z,29.18
2019-03-04T14:22:18.679Z,29.79
2019-03-04T14:25:23.116Z,29.81
2019-03-04T14:28:28.438Z,30.62
2019-03-04T14:31:32.974Z,30.74
2019-03-04T14:34:37.696Z,30.36
2019-03-04T14:37:43.146Z,30.94
2019-03-04T14:40:47.582Z,31.78
2019-03-04T14:43:52.027Z,32.13
2019-03-04T14:46:56.473Z,32.40
2019-03-04T14:50:09.508Z,33.16
2019-03-04T14:53:07.086Z,33.21
2019-03-04T14:56:11.827Z,32.57
2019-03-04T14:59:16.270Z,33.16
2019-03-04T15:02:20.710Z,33.57
2019-03-04T15:05:25.400Z,34.44
2019-03-04T15:08:30.133Z,35.45
2019-03-04T15:11:34.588Z,35.95
2019-03-04T15:14:39.287Z,37.38
2019-03-04T15:17:43.731Z,38.80
2019-03-04T15:20:48.158Z,38.98
2019-03-04T15:23:52.864Z,39.57
2019-03-04T15:26:57.696Z,39.69
2019-03-04T15:30:02.141Z,40.35
2019-03-04T15:33:06.573Z,42.02
2019-03-04T15:36:11.007Z,43.53
2019-03-04T15:39:22.507Z,45.49
2019-03-04T15:42:21.894Z,53.30
2019-03-04T15:45:26.334Z,58.83
2019-03-04T15:48:31.044Z,63.68
2019-03-04T15:51:36.877Z,66.73
2019-03-04T15:54:41.312Z,71.25
2019-03-04T15:57:45.774Z,71.25
2019-03-04T16:00:50.554Z,74.00
2019-03-04T16:03:54.986Z,75.36
2019-03-04T16:06:59.415Z,73.15
2019-03-04T16:10:06.687Z,71.44
2019-03-04T16:13:11.194Z,71.30
2019-03-04T16:16:15.669Z,70.61
2019-03-04T16:19:20.382Z,70.78
2019-03-04T16:22:24.797Z,69.74
2019-03-04T16:25:29.532Z,68.43
2019-03-04T16:28:34.255Z,68.86
2019-03-04T16:31:38.986Z,67.89
2019-03-04T16:34:43.421Z,67.65
2019-03-04T16:37:47.844Z,68.46
2019-03-04T16:40:52.277Z,68.19
2019-03-04T16:43:56.708Z,68.67
2019-03-04T16:47:01.418Z,68.77
2019-03-04T16:50:10.647Z,68.13
2019-03-04T16:53:22.498Z,68.57
2019-03-04T16:56:26.930Z,68.49
2019-03-04T16:59:31.369Z,67.85
2019-03-04T17:02:35.801Z,69.86
2019-03-04T17:05:40.227Z,71.60
2019-03-04T17:08:44.969Z,71.95
2019-03-04T17:11:49.402Z,72.94
2019-03-04T17:14:53.832Z,72.87
2019-03-04T17:17:58.547Z,74.49
2019-03-04T17:21:03.277Z,75.44
2019-03-04T17:24:08.554Z,75.51
2019-03-04T17:27:13.254Z,75.50
2019-03-04T17:30:25.429Z,74.13
2019-03-04T17:33:29.864Z,74.05
2019-03-04T17:36:34.297Z,74.19
2019-03-04T17:39:39.038Z,75.20
2019-03-04T17:42:43.704Z,75.27
2019-03-04T17:45:48.141Z,74.36
2019-03-04T17:48:52.564Z,74.54
2019-03-04T17:51:57.000Z,74.17
2019-03-04T17:55:01.775Z,74.03
2019-03-04T17:58:06.913Z,73.88
2019-03-04T18:01:11.348Z,73.39
2019-03-04T18:04:16.063Z,72.27
2019-03-04T18:07:20.501Z,73.00
2019-03-04T18:10:25.004Z,71.12
2019-03-04T18:13:29.431Z,71.17
2019-03-04T18:16:33.865Z,70.83
2019-03-04T18:19:38.287Z,70.32
2019-03-04T18:22:42.861Z,68.09
2019-03-04T18:26:04.119Z,67.56
2019-03-04T18:29:19.209Z,67.41
2019-03-04T18:32:40.581Z,65.78
2019-03-04T18:36:11.937Z,65.23
2019-03-04T18:39:59.418Z,66.41
2019-03-04T18:43:40.995Z,67.24
2019-03-04T18:47:15.533Z,66.42
2019-03-04T18:50:20.055Z,67.03
2019-03-04T18:53:24.489Z,66.24
2019-03-04T18:56:29.216Z,67.44
2019-03-04T18:59:33.951Z,67.36
2019-03-04T19:02:38.386Z,68.04
2019-03-04T19:05:42.826Z,68.72
2019-03-04T19:08:47.250Z,67.44
2019-03-04T19:11:51.981Z,68.29
2019-03-04T19:14:56.472Z,67.87
2019-03-04T19:18:00.904Z,67.44
2019-03-04T19:21:05.424Z,67.57
2019-03-04T19:24:09.856Z,69.22
2019-03-04T19:27:14.291Z,67.50
2019-03-04T19:30:18.715Z,67.84
2019-03-04T19:33:23.148Z,66.95
2019-03-04T19:36:27.582Z,68.05
2019-03-04T19:39:32.354Z,67.14
2019-03-04T19:42:36.790Z,66.58
2019-03-04T19:45:41.531Z,66.95
2019-03-04T19:48:46.257Z,67.00
2019-03-04T19:51:50.996Z,68.13
2019-03-04T19:54:55.416Z,68.03
2019-03-04T19:57:59.922Z,68.18
2019-03-04T20:01:04.433Z,69.33
2019-03-04T20:04:08.852Z,69.35
2019-03-04T20:07:13.818Z,70.03
2019-03-04T20:10:19.181Z,71.08
2019-03-04T20:13:24.009Z,71.26
2019-03-04T20:16:28.446Z,71.81
2019-03-04T20:19:32.873Z,71.73
2019-03-04T20:22:37.590Z,72.67
2019-03-04T20:25:42.082Z,72.94
2019-03-04T20:28:46.518Z,72.43
2019-03-04T20:31:51.265Z,72.59
2019-03-04T20:34:55.695Z,72.95
2019-03-04T20:38:10.675Z,72.97
2019-03-04T20:41:15.130Z,73.10
2019-03-04T20:44:19.850Z,72.98
2019-03-04T20:47:24.543Z,72.55
2019-03-04T20:50:28.975Z,72.36
2019-03-04T20:53:33.488Z,72.86
2019-03-04T20:56:37.921Z,73.33
2019-03-04T20:59:42.346Z,72.17
2019-03-04T21:02:46.867Z,72.26
2019-03-04T21:05:51.418Z,72.57
2019-03-04T21:08:56.116Z,72.47
2019-03-04T21:12:00.553Z,73.18
2019-03-04T21:15:08.830Z,73.36
2019-03-04T21:18:13.793Z,73.36
2019-03-04T21:21:18.224Z,73.95
2019-03-04T21:24:22.648Z,73.80
2019-03-04T21:27:27.225Z,73.40
2019-03-04T21:31:02.229Z,73.56
2019-03-04T21:34:11.584Z,74.28
2019-03-04T21:37:29.803Z,74.46
2019-03-04T21:40:39.237Z,74.75
2019-03-04T21:43:48.445Z,75.04
2019-03-04T21:47:27.723Z,75.42
2019-03-04T21:50:48.587Z,74.91
2019-03-04T21:53:53.764Z,75.37
2019-03-04T21:57:05.701Z,75.78
2019-03-04T22:00:15.784Z,76.13
2019-03-04T22:03:21.865Z,75.70
2019-03-04T22:06:26.918Z,75.75
2019-03-04T22:09:32.366Z,76.04
2019-03-04T22:12:36.880Z,75.58
2019-03-04T22:15:41.394Z,77.10
2019-03-04T22:18:45.872Z,77.19
2019-03-04T22:21:50.382Z,76.08
2019-03-04T22:24:55.096Z,76.48
2019-03-04T22:27:59.963Z,75.47
2019-03-04T22:31:04.688Z,75.71
2019-03-04T22:34:09.402Z,75.42
2019-03-04T22:37:13.838Z,75.17
2019-03-04T22:40:24.395Z,76.75
2019-03-04T22:43:29.117Z,76.31
2019-03-04T22:46:33.592Z,75.57
2019-03-04T22:49:38.265Z,75.21
2019-03-04T22:52:42.804Z,74.74
2019-03-04T22:55:47.199Z,75.04
2019-03-04T22:58:51.640Z,74.59
2019-03-04T23:01:56.931Z,73.73
2019-03-04T23:05:02.534Z,73.75
2019-03-04T23:08:07.369Z,73.78
2019-03-04T23:11:12.210Z,73.78
2019-03-04T23:14:27.181Z,74.95
2019-03-04T23:17:31.915Z,74.38
2019-03-04T23:20:36.347Z,74.63
2019-03-04T23:23:40.790Z,73.55
2019-03-04T23:26:45.215Z,72.20
2019-03-04T23:29:49.915Z,72.09
2019-03-04T23:32:54.347Z,72.16
2019-03-04T23:35:58.779Z,71.58
2019-03-04T23:39:04.785Z,72.65
2019-03-04T23:42:09.216Z,71.31
2019-03-04T23:45:14.177Z,71.69
2019-03-04T23:48:18.597Z,72.43
2019-03-04T23:51:23.327Z,73.65
2019-03-04T23:54:27.769Z,73.12
2019-03-04T23:57:32.184Z,72.07
